createdAt,value
2022-09-05T00:00:13.210Z,0.00
2022-09-05T00:01:13.151Z,0.00
2022-09-05T00:02:13.136Z,0.00
2022-09-05T00:03:13.227Z,0.00
2022-09-05T00:04:23.951Z,0.00
2022-09-05T00:05:14.100Z,0.00
2022-09-05T00:06:13.094Z,0.00
2022-09-05T00:07:38.841Z,0.00
2022-09-05T00:08:14.073Z,0.00
2022-09-05T00:09:13.084Z,0.00
2022-09-05T00:10:13.048Z,0.00
2022-09-05T00:11:41.934Z,0.00
2022-09-05T00:12:14.030Z,0.00
2022-09-05T00:13:13.017Z,0.00
2022-09-05T00:14:13.006Z,0.00
2022-09-05T00:15:17.392Z,0.00
2022-09-05T00:16:14.036Z,0.00
2022-09-05T00:17:12.972Z,0.00
2022-09-05T00:19:37.048Z,0.00
2022-09-05T00:22:46.690Z,0.00
2022-09-05T00:24:19.084Z,0.00
2022-09-05T00:24:24.923Z,0.00
2022-09-05T00:24:25.767Z,0.00
2022-09-05T00:24:28.312Z,0.00
2022-09-05T00:24:31.148Z,0.00
2022-09-05T00:25:31.315Z,0.00
2022-09-05T00:26:13.919Z,0.00
2022-09-05T00:27:12.865Z,0.00
2022-09-05T00:28:26.374Z,0.00
2022-09-05T00:29:14.894Z,0.00
2022-09-05T00:31:06.831Z,0.00
2022-09-05T00:31:54.005Z,0.00
2022-09-05T00:32:13.933Z,0.00
2022-09-05T00:33:17.181Z,0.00
2022-09-05T00:34:13.787Z,0.00
2022-09-05T00:35:12.780Z,0.00
2022-09-05T00:36:12.767Z,0.00
2022-09-05T00:37:14.963Z,0.00
2022-09-05T00:38:12.740Z,0.00
2022-09-05T00:39:12.732Z,0.00
2022-09-05T00:40:18.477Z,0.00
2022-09-05T00:41:13.714Z,0.00
2022-09-05T00:42:12.700Z,0.00
2022-09-05T00:43:12.693Z,0.00
2022-09-05T00:44:12.687Z,0.00
2022-09-05T00:45:19.366Z,0.00
2022-09-05T00:46:13.721Z,0.00
2022-09-05T00:47:12.640Z,0.00
2022-09-05T00:48:12.655Z,0.00
2022-09-05T00:49:12.620Z,0.00
2022-09-05T00:50:13.045Z,0.00
2022-09-05T00:51:12.598Z,0.00
2022-09-05T00:52:12.593Z,0.00
2022-09-05T00:53:12.575Z,0.00
2022-09-05T00:54:12.576Z,0.00
2022-09-05T00:55:12.555Z,0.00
2022-09-05T00:56:12.561Z,0.00
2022-09-05T00:57:12.533Z,0.00
2022-09-05T00:58:13.560Z,0.00
2022-09-05T00:59:12.513Z,0.00
2022-09-05T01:00:17.017Z,0.00
2022-09-05T01:01:21.170Z,0.00
2022-09-05T01:02:13.558Z,0.00
2022-09-05T01:03:12.505Z,0.00
2022-09-05T01:04:12.456Z,0.00
2022-09-05T01:05:12.444Z,0.00
2022-09-05T01:06:12.445Z,0.00
2022-09-05T01:07:12.425Z,0.00
2022-09-05T01:08:12.415Z,0.00
2022-09-05T01:09:12.407Z,0.00
2022-09-05T01:10:12.445Z,0.00
2022-09-05T01:11:12.394Z,0.00
2022-09-05T01:12:12.374Z,0.00
2022-09-05T01:13:12.360Z,0.00
2022-09-05T01:14:12.693Z,0.00
2022-09-05T01:15:12.341Z,0.00
2022-09-05T01:16:12.416Z,0.00
2022-09-05T01:17:12.346Z,0.00
2022-09-05T01:18:12.341Z,0.00
2022-09-05T01:19:16.093Z,0.00
2022-09-05T01:20:19.918Z,0.00
2022-09-05T01:21:13.269Z,0.00
2022-09-05T01:22:12.415Z,0.00
2022-09-05T01:23:12.250Z,0.00
2022-09-05T01:24:12.295Z,0.00
2022-09-05T01:25:12.231Z,0.00
2022-09-05T01:26:12.224Z,0.00
2022-09-05T01:27:12.219Z,0.00
2022-09-05T01:29:13.274Z,0.00
2022-09-05T01:29:19.119Z,0.00
2022-09-05T01:30:13.180Z,0.00
2022-09-05T01:31:12.275Z,0.00
2022-09-05T01:32:12.303Z,0.00
2022-09-05T01:33:12.140Z,0.00
2022-09-05T01:34:12.140Z,0.00
2022-09-05T01:35:12.119Z,0.00
2022-09-05T01:36:12.107Z,0.00
2022-09-05T01:37:26.610Z,0.00
2022-09-05T01:38:13.159Z,0.00
2022-09-05T01:40:04.467Z,0.00
2022-09-05T01:40:16.125Z,0.00
2022-09-05T01:41:18.634Z,0.00
2022-09-05T01:42:13.138Z,0.00
2022-09-05T01:43:12.034Z,0.00
2022-09-05T01:44:12.023Z,0.00
2022-09-05T01:45:12.011Z,0.00
2022-09-05T01:46:12.024Z,0.00
2022-09-05T01:47:12.004Z,0.00
2022-09-05T01:48:11.979Z,0.00
2022-09-05T01:49:11.968Z,0.00
2022-09-05T01:50:11.955Z,0.00
2022-09-05T01:51:28.259Z,0.00
2022-09-05T01:52:12.981Z,0.00
2022-09-05T01:53:11.922Z,0.00
2022-09-05T01:54:25.730Z,0.00
2022-09-05T01:55:12.900Z,0.00
2022-09-05T01:56:11.938Z,0.00
2022-09-05T01:57:11.893Z,0.00
2022-09-05T01:58:11.865Z,0.00
2022-09-05T01:59:11.853Z,0.00
2022-09-05T02:00:11.848Z,0.00
2022-09-05T02:01:25.514Z,0.00
2022-09-05T02:02:12.938Z,0.00
2022-09-05T02:03:11.869Z,0.00
2022-09-05T02:04:11.813Z,0.00
2022-09-05T02:05:11.791Z,0.00
2022-09-05T02:06:11.794Z,0.00
2022-09-05T02:07:19.435Z,0.00
2022-09-05T02:08:12.768Z,0.00
2022-09-05T02:09:11.745Z,0.00
2022-09-05T02:10:11.737Z,0.00
2022-09-05T02:11:11.738Z,0.00
2022-09-05T02:12:11.716Z,0.00
2022-09-05T02:13:11.703Z,0.00
2022-09-05T02:14:11.689Z,0.00
2022-09-05T02:15:12.678Z,0.00
2022-09-05T02:16:11.710Z,0.00
2022-09-05T02:17:27.270Z,0.00
2022-09-05T02:18:12.647Z,0.00
2022-09-05T02:19:11.647Z,0.00
2022-09-05T02:20:11.626Z,0.00
2022-09-05T02:21:11.617Z,0.00
2022-09-05T02:22:11.622Z,0.00
2022-09-05T02:23:37.598Z,0.00
2022-09-05T02:24:12.582Z,0.00
2022-09-05T02:25:33.853Z,0.00
2022-09-05T02:26:12.558Z,0.00
2022-09-05T02:27:31.865Z,0.00
2022-09-05T02:28:12.552Z,0.00
2022-09-05T02:29:11.541Z,0.00
2022-09-05T02:30:11.518Z,0.00
2022-09-05T02:31:19.440Z,0.00
2022-09-05T02:32:12.498Z,0.00
2022-09-05T02:33:11.497Z,0.00
2022-09-05T02:34:11.496Z,0.00
2022-09-05T02:35:13.831Z,0.00
2022-09-05T02:36:11.451Z,0.00
2022-09-05T02:37:11.436Z,0.00
2022-09-05T02:39:20.001Z,0.00
2022-09-05T02:45:01.206Z,0.00
2022-09-05T02:45:07.047Z,0.00
2022-09-05T02:45:10.435Z,0.00
2022-09-05T02:45:11.423Z,0.00
2022-09-05T02:45:18.109Z,0.00
2022-09-05T02:45:18.188Z,0.00
2022-09-05T02:45:25.597Z,0.00
2022-09-05T02:46:12.471Z,0.00
2022-09-05T02:47:11.443Z,0.00
2022-09-05T02:48:15.961Z,0.00
2022-09-05T02:49:17.674Z,0.00
2022-09-05T02:52:19.844Z,0.00
2022-09-05T02:57:26.302Z,0.00
2022-09-05T02:57:27.085Z,0.00
2022-09-05T02:57:39.220Z,0.00
2022-09-05T02:57:40.444Z,0.00
2022-09-05T02:57:41.756Z,0.00
2022-09-05T02:57:42.650Z,0.00
2022-09-05T02:57:45.820Z,0.00
2022-09-05T02:58:12.485Z,0.00
2022-09-05T02:59:11.282Z,0.00
2022-09-05T03:00:11.183Z,0.00
2022-09-05T03:01:11.234Z,0.00
2022-09-05T03:02:26.227Z,0.00
2022-09-05T03:03:12.221Z,0.00
2022-09-05T03:04:11.143Z,0.00
2022-09-05T03:05:11.129Z,0.00
2022-09-05T03:06:11.116Z,0.00
2022-09-05T03:07:11.108Z,0.00
2022-09-05T03:08:11.170Z,0.00
2022-09-05T03:09:17.471Z,0.00
2022-09-05T03:10:12.097Z,0.00
2022-09-05T03:11:11.130Z,0.00
2022-09-05T03:12:27.181Z,0.00
2022-09-05T03:13:12.045Z,0.00
2022-09-05T03:14:11.044Z,0.00
2022-09-05T03:15:18.435Z,0.00
2022-09-05T03:16:12.072Z,0.00
2022-09-05T03:17:11.033Z,0.00
2022-09-05T03:18:20.351Z,0.00
2022-09-05T03:19:11.980Z,0.00
2022-09-05T03:20:10.975Z,0.00
2022-09-05T03:21:10.957Z,0.00
2022-09-05T03:22:11.059Z,0.00
2022-09-05T03:23:10.938Z,0.00
2022-09-05T03:24:10.923Z,0.00
2022-09-05T03:25:10.915Z,0.00
2022-09-05T03:26:10.901Z,0.00
2022-09-05T03:27:10.895Z,0.00
2022-09-05T03:28:10.889Z,0.00
2022-09-05T03:29:10.868Z,0.00
2022-09-05T03:30:10.855Z,0.00
2022-09-05T03:31:20.273Z,0.00
2022-09-05T03:32:11.836Z,0.00
2022-09-05T03:33:10.834Z,0.00
2022-09-05T03:34:10.812Z,0.00
2022-09-05T03:35:10.906Z,0.00
2022-09-05T03:36:10.789Z,0.00
2022-09-05T03:37:10.780Z,0.00
2022-09-05T03:38:10.770Z,0.00
2022-09-05T03:39:10.754Z,0.00
2022-09-05T03:40:15.801Z,0.00
2022-09-05T03:41:11.759Z,0.00
2022-09-05T03:42:14.989Z,0.00
2022-09-05T03:43:10.712Z,0.00
2022-09-05T03:44:10.704Z,0.00
2022-09-05T03:45:10.697Z,0.00
2022-09-05T03:46:10.932Z,0.00
2022-09-05T03:47:10.686Z,0.00
2022-09-05T03:48:16.509Z,0.00
2022-09-05T03:49:50.187Z,0.00
2022-09-05T03:54:59.749Z,0.00
2022-09-05T03:55:59.962Z,0.00
2022-09-05T03:57:10.324Z,0.00
2022-09-05T03:57:16.114Z,0.00
2022-09-05T03:57:16.116Z,0.00
2022-09-05T03:57:17.061Z,0.00
2022-09-05T03:57:20.725Z,0.00
2022-09-05T03:57:32.555Z,0.00
2022-09-05T03:58:16.672Z,0.00
2022-09-05T03:59:11.540Z,0.00
2022-09-05T04:00:10.544Z,0.00
2022-09-05T04:02:52.622Z,0.00
2022-09-05T04:06:58.380Z,0.00
2022-09-05T04:08:09.999Z,0.00
2022-09-05T04:08:10.223Z,0.00
2022-09-05T04:08:18.857Z,0.00
2022-09-05T04:08:24.732Z,0.00
2022-09-05T04:08:28.551Z,0.00
2022-09-05T04:08:38.944Z,0.00
2022-09-05T04:09:11.512Z,0.00
2022-09-05T04:10:10.530Z,0.00
2022-09-05T04:11:10.412Z,0.00
2022-09-05T04:12:10.414Z,0.00
2022-09-05T04:13:10.384Z,4.00
2022-09-05T04:14:10.386Z,0.00
2022-09-05T04:15:10.365Z,0.00
2022-09-05T04:16:10.405Z,4.00
2022-09-05T04:17:10.343Z,4.00
2022-09-05T04:18:10.345Z,4.00
2022-09-05T04:19:10.320Z,4.00
2022-09-05T04:20:10.311Z,8.00
2022-09-05T04:21:10.300Z,8.00
2022-09-05T04:22:10.289Z,12.00
2022-09-05T04:23:10.275Z,8.00
2022-09-05T04:24:10.280Z,12.00
2022-09-05T04:25:10.257Z,16.00
2022-09-05T04:26:11.439Z,20.00
2022-09-05T04:27:10.230Z,24.00
2022-09-05T04:28:10.278Z,24.00
2022-09-05T04:29:10.221Z,32.00
2022-09-05T04:30:39.880Z,32.00
2022-09-05T04:31:11.187Z,40.00
2022-09-05T04:32:18.031Z,48.00
2022-09-05T04:33:11.172Z,56.00
2022-09-05T04:34:10.156Z,64.00
2022-09-05T04:35:10.146Z,76.00
2022-09-05T04:36:12.053Z,92.00
2022-09-05T04:37:11.124Z,108.00
2022-09-05T04:38:10.114Z,124.00
2022-09-05T04:39:10.154Z,148.00
2022-09-05T04:40:10.155Z,176.00
2022-09-05T04:41:10.143Z,196.00
2022-09-05T04:42:10.078Z,224.00
2022-09-05T04:43:10.062Z,248.00
2022-09-05T04:44:10.269Z,272.00
2022-09-05T04:45:10.060Z,296.00
2022-09-05T04:46:10.149Z,312.00
2022-09-05T04:47:10.023Z,324.00
2022-09-05T04:48:10.008Z,348.00
2022-09-05T04:49:09.997Z,372.00
2022-09-05T04:50:09.992Z,396.00
2022-09-05T04:51:10.203Z,420.00
2022-09-05T04:52:10.116Z,432.00
2022-09-05T04:53:09.950Z,444.00
2022-09-05T04:54:10.055Z,460.00
2022-09-05T04:55:09.928Z,496.00
2022-09-05T04:56:09.926Z,564.00
2022-09-05T04:57:11.751Z,624.00
2022-09-05T04:58:09.897Z,652.00
2022-09-05T05:02:33.518Z,664.00
2022-09-05T05:03:37.620Z,656.00
2022-09-05T05:05:59.533Z,696.00
2022-09-05T05:06:00.542Z,680.00
2022-09-05T05:06:08.548Z,724.00
2022-09-05T05:06:09.582Z,788.00
2022-09-05T05:06:10.662Z,756.00
2022-09-05T05:06:38.128Z,820.00
2022-09-05T05:07:10.946Z,848.00
2022-09-05T05:08:09.930Z,884.00
2022-09-05T05:09:09.774Z,920.00
2022-09-05T05:12:36.197Z,956.00
2022-09-05T05:17:12.887Z,1004.00
2022-09-05T05:17:55.152Z,1192.00
2022-09-05T05:17:57.331Z,1124.00
2022-09-05T05:18:01.917Z,1060.00
2022-09-05T05:18:09.412Z,1332.00
2022-09-05T05:18:13.565Z,1412.00
2022-09-05T05:18:14.520Z,1256.00
2022-09-05T05:18:50.847Z,1488.00
2022-09-05T05:19:18.549Z,1568.00
2022-09-05T05:20:40.287Z,1648.00
2022-09-05T05:21:10.659Z,1728.00
2022-09-05T05:22:09.636Z,1800.00
2022-09-05T05:23:09.642Z,1868.00
2022-09-05T05:24:09.615Z,1924.00
2022-09-05T05:25:09.611Z,1988.00
2022-09-05T05:26:09.587Z,2068.00
2022-09-05T05:27:09.574Z,2164.00
2022-09-05T05:28:18.663Z,2304.00
2022-09-05T05:29:10.581Z,2508.00
2022-09-05T05:30:09.641Z,2788.00
2022-09-05T05:31:09.656Z,3116.00
2022-09-05T05:32:09.520Z,3496.00
2022-09-05T05:33:09.527Z,3864.00
2022-09-05T05:34:12.981Z,4116.00
2022-09-05T05:35:10.490Z,4236.00
2022-09-05T05:36:09.489Z,4196.00
2022-09-05T05:37:09.466Z,4108.00
2022-09-05T05:38:09.509Z,4084.00
2022-09-05T05:39:09.498Z,4096.00
2022-09-05T05:40:09.526Z,4120.00
2022-09-05T05:41:09.514Z,4212.00
2022-09-05T05:42:20.968Z,4228.00
2022-09-05T05:43:10.400Z,4200.00
2022-09-05T05:44:09.422Z,4168.00
2022-09-05T05:45:09.430Z,4132.00
2022-09-05T05:46:09.437Z,4116.00
2022-09-05T05:47:09.358Z,4132.00
2022-09-05T05:48:09.345Z,4184.00
2022-09-05T05:49:09.332Z,4296.00
2022-09-05T05:50:11.254Z,4400.00
2022-09-05T05:51:09.325Z,4428.00
2022-09-05T05:52:09.301Z,4400.00
2022-09-05T05:53:09.295Z,4316.00
2022-09-05T05:54:09.338Z,4232.00
2022-09-05T05:55:48.950Z,4180.00
2022-09-05T05:56:10.259Z,4184.00
2022-09-05T05:57:15.076Z,4224.00
2022-09-05T05:58:10.246Z,4276.00
2022-09-05T05:59:09.228Z,4340.00
2022-09-05T06:00:09.221Z,4412.00
2022-09-05T06:01:28.905Z,4468.00
2022-09-05T06:02:10.349Z,4508.00
2022-09-05T06:03:26.768Z,4536.00
2022-09-05T06:04:10.168Z,4520.00
2022-09-05T06:05:09.160Z,4468.00
2022-09-05T06:06:09.149Z,4376.00
2022-09-05T06:07:09.903Z,4292.00
2022-09-05T06:11:23.338Z,4256.00
2022-09-05T06:12:05.638Z,4264.00
2022-09-05T06:14:56.141Z,4308.00
2022-09-05T06:15:02.368Z,4364.00
2022-09-05T06:15:04.539Z,4568.00
2022-09-05T06:15:06.631Z,4416.00
2022-09-05T06:15:06.631Z,4476.00
2022-09-05T06:15:12.333Z,4716.00
2022-09-05T06:16:09.148Z,4908.00
2022-09-05T06:17:09.029Z,5116.00
2022-09-05T06:18:09.014Z,5268.00
2022-09-05T06:19:09.005Z,5408.00
2022-09-05T06:22:04.483Z,5564.00
2022-09-05T06:22:09.904Z,5668.00
2022-09-05T06:22:14.777Z,5668.00
2022-09-05T06:23:28.742Z,5576.00
2022-09-05T06:24:09.944Z,5448.00
2022-09-05T06:25:16.901Z,5336.00
2022-09-05T06:26:09.939Z,5348.00
2022-09-05T06:27:08.917Z,5516.00
2022-09-05T06:28:19.045Z,5764.00
2022-09-05T06:29:09.895Z,5996.00
2022-09-05T06:30:08.967Z,6348.00
2022-09-05T06:31:29.232Z,6660.00
2022-09-05T06:32:09.958Z,6920.00
2022-09-05T06:33:08.850Z,7156.00
2022-09-05T06:34:30.859Z,7252.00
2022-09-05T06:35:09.840Z,7136.00
2022-09-05T06:36:08.816Z,6960.00
2022-09-05T06:37:08.805Z,6924.00
2022-09-05T06:38:08.793Z,7116.00
2022-09-05T06:39:08.782Z,7392.00
2022-09-05T06:40:08.908Z,7608.00
2022-09-05T06:41:08.783Z,7792.00
2022-09-05T06:42:08.757Z,7976.00
2022-09-05T06:43:09.736Z,8116.00
2022-09-05T06:44:08.725Z,8232.00
2022-09-05T06:45:27.835Z,8364.00
2022-09-05T06:46:09.853Z,8740.00
2022-09-05T06:47:24.332Z,9172.00
2022-09-05T06:48:09.734Z,9032.00
2022-09-05T06:49:28.208Z,9384.00
2022-09-05T06:50:27.090Z,9776.00
2022-09-05T06:51:09.674Z,10192.00
2022-09-05T06:52:28.958Z,10656.00
2022-09-05T06:53:19.597Z,11248.00
2022-09-05T06:54:09.618Z,11964.00
2022-09-05T06:55:08.618Z,12772.00
2022-09-05T06:56:08.606Z,13748.00
2022-09-05T06:57:08.588Z,14824.00
2022-09-05T06:58:08.621Z,16048.00
2022-09-05T06:59:09.951Z,17472.00
2022-09-05T07:00:17.515Z,18272.00
2022-09-05T07:01:09.686Z,18272.00
2022-09-05T07:02:08.806Z,19776.00
2022-09-05T07:03:08.615Z,21376.00
2022-09-05T07:04:33.353Z,21536.00
2022-09-05T07:05:37.855Z,22112.00
2022-09-05T07:06:09.528Z,22528.00
2022-09-05T07:07:09.516Z,22944.00
2022-09-05T07:08:25.123Z,23584.00
2022-09-05T07:09:09.452Z,24064.00
2022-09-05T07:10:28.267Z,24608.00
2022-09-05T07:11:15.848Z,25056.00
2022-09-05T07:12:09.414Z,25760.00
2022-09-05T07:13:08.501Z,27712.00
2022-09-05T07:14:08.397Z,47200.00
2022-09-05T07:15:09.332Z,27424.00
2022-09-05T07:16:08.435Z,27008.00
2022-09-05T07:17:08.376Z,27712.00
2022-09-05T07:18:10.911Z,30880.00
2022-09-05T07:19:08.338Z,37184.00
2022-09-05T07:20:08.352Z,77376.00
2022-09-05T07:21:17.309Z,40064.00
2022-09-05T07:22:41.733Z,34912.00
2022-09-05T07:23:49.290Z,43360.00
2022-09-05T07:24:11.023Z,58368.00
2022-09-05T07:25:08.769Z,64032.00
2022-09-05T07:26:08.264Z,39840.00
2022-09-05T07:27:09.267Z,37184.00
2022-09-05T07:28:25.761Z,37760.00
2022-09-05T07:29:09.915Z,31744.00
2022-09-05T07:30:08.218Z,55648.00
2022-09-05T07:31:08.256Z,32352.00
2022-09-05T07:32:08.267Z,31520.00
2022-09-05T07:33:08.185Z,30816.00
2022-09-05T07:34:21.150Z,34624.00
2022-09-05T07:35:09.192Z,32896.00
2022-09-05T07:36:08.152Z,44832.00
2022-09-05T07:37:15.474Z,94688.00
2022-09-05T07:38:09.182Z,85696.00
2022-09-05T07:39:27.459Z,80192.00
2022-09-05T07:40:25.229Z,72000.00
2022-09-05T07:41:09.093Z,74336.00
2022-09-05T07:42:08.096Z,76000.00
2022-09-05T07:43:09.813Z,78752.00
2022-09-05T07:44:08.069Z,75712.00
2022-09-05T07:45:08.079Z,77664.00
2022-09-05T07:46:08.118Z,83872.00
2022-09-05T07:47:08.036Z,83104.00
2022-09-05T07:48:08.075Z,85600.00
2022-09-05T07:49:08.010Z,87776.00
2022-09-05T07:51:00.665Z,88448.00
2022-09-05T07:56:46.167Z,90720.00
2022-09-05T07:56:48.886Z,91744.00
2022-09-05T07:56:49.968Z,93344.00
2022-09-05T07:57:09.517Z,89280.00
2022-09-05T07:57:09.637Z,84544.00
2022-09-05T07:57:15.733Z,88000.00
2022-09-05T07:57:26.952Z,87744.00
2022-09-05T07:58:08.915Z,86880.00
2022-09-05T07:59:07.902Z,83392.00
2022-09-05T08:00:07.945Z,82528.00
2022-09-05T08:01:08.934Z,86688.00
2022-09-05T08:02:07.895Z,92768.00
2022-09-05T08:03:07.940Z,92832.00
2022-09-05T08:04:07.844Z,91776.00
2022-09-05T08:05:07.930Z,93472.00
2022-09-05T08:06:07.825Z,93184.00
2022-09-05T08:07:49.684Z,97984.00
2022-09-05T08:08:08.819Z,104640.00
2022-09-05T08:09:50.903Z,86304.00
2022-09-05T08:10:10.341Z,90464.00
2022-09-05T08:11:23.403Z,93920.00
2022-09-05T08:12:09.915Z,90240.00
2022-09-05T08:13:24.578Z,90720.00
2022-09-05T08:14:40.675Z,97376.00
2022-09-05T08:15:10.333Z,94688.00
2022-09-05T08:16:13.317Z,91872.00
2022-09-05T08:17:08.713Z,91200.00
2022-09-05T08:18:07.689Z,95520.00
2022-09-05T08:19:07.679Z,92576.00
2022-09-05T08:20:08.827Z,92192.00
2022-09-05T08:21:07.658Z,92416.00
2022-09-05T08:22:07.647Z,95456.00
2022-09-05T08:23:07.649Z,95712.00
2022-09-05T08:24:13.122Z,95872.00
2022-09-05T08:25:08.612Z,98656.00
2022-09-05T08:26:07.602Z,105664.00
2022-09-05T08:27:10.168Z,108256.00
2022-09-05T08:28:08.594Z,107200.00
2022-09-05T08:29:07.570Z,105728.00
2022-09-05T08:30:26.852Z,99104.00
2022-09-05T08:31:08.617Z,94976.00
2022-09-05T08:32:07.541Z,100768.00
2022-09-05T08:33:11.480Z,100320.00
2022-09-05T08:34:07.523Z,104736.00
2022-09-05T08:35:07.503Z,109184.00
2022-09-05T08:36:07.602Z,108736.00
2022-09-05T08:37:07.481Z,109952.00
2022-09-05T08:38:07.482Z,102240.00
2022-09-05T08:39:07.532Z,102592.00
2022-09-05T08:40:10.492Z,98752.00
2022-09-05T08:41:07.438Z,105696.00
2022-09-05T08:42:07.440Z,114528.00
2022-09-05T08:45:52.055Z,113472.00
2022-09-05T08:46:37.302Z,113344.00
2022-09-05T08:46:39.203Z,111520.00
2022-09-05T08:46:42.699Z,119808.00
2022-09-05T08:47:08.446Z,114336.00
2022-09-05T08:48:07.449Z,109824.00
2022-09-05T08:49:12.280Z,106400.00
2022-09-05T08:50:08.485Z,105216.00
2022-09-05T08:51:07.338Z,106656.00
2022-09-05T08:52:07.328Z,106656.00
2022-09-05T08:53:26.334Z,106272.00
2022-09-05T08:54:08.294Z,107968.00
2022-09-05T08:55:07.805Z,114464.00
2022-09-05T08:56:07.273Z,120384.00
2022-09-05T08:57:07.326Z,123520.00
2022-09-05T08:58:07.318Z,117472.00
2022-09-05T08:59:28.990Z,114848.00
2022-09-05T09:00:20.330Z,107840.00
2022-09-05T09:01:08.304Z,105920.00
2022-09-05T09:02:46.207Z,109536.00
2022-09-05T09:03:08.265Z,106496.00
2022-09-05T09:04:10.710Z,103360.00
2022-09-05T09:05:07.179Z,112224.00
2022-09-05T09:06:14.268Z,107008.00
2022-09-05T09:07:47.308Z,101888.00
2022-09-05T09:08:08.151Z,102016.00
2022-09-05T09:09:07.171Z,103008.00
2022-09-05T09:10:07.117Z,99136.00
2022-09-05T09:11:07.157Z,98912.00
2022-09-05T09:12:07.095Z,107616.00
2022-09-05T09:13:07.146Z,119520.00
2022-09-05T09:14:07.071Z,114752.00
2022-09-05T09:15:07.062Z,118592.00
2022-09-05T09:16:07.108Z,120192.00
2022-09-05T09:17:07.097Z,123840.00
2022-09-05T09:18:10.230Z,114016.00
2022-09-05T09:19:07.018Z,117120.00
2022-09-05T09:20:07.022Z,118016.00
2022-09-05T09:21:07.046Z,116192.00
2022-09-05T09:22:06.984Z,122912.00
2022-09-05T09:23:06.979Z,114176.00
2022-09-05T09:24:08.013Z,119168.00
2022-09-05T09:25:15.771Z,131680.00
2022-09-05T09:26:07.945Z,134496.00
2022-09-05T09:27:06.941Z,43360.00
2022-09-05T09:28:49.745Z,86368.00
2022-09-05T09:29:07.986Z,135488.00
2022-09-05T09:30:06.899Z,93344.00
2022-09-05T09:31:07.026Z,96864.00
2022-09-05T09:32:06.945Z,91488.00
2022-09-05T09:33:06.865Z,115136.00
2022-09-05T09:34:06.906Z,136096.00
2022-09-05T09:35:06.846Z,129344.00
2022-09-05T09:36:08.184Z,51520.00
2022-09-05T09:37:06.946Z,46496.00
2022-09-05T09:38:06.816Z,46432.00
2022-09-05T09:39:11.731Z,64448.00
2022-09-05T09:40:07.817Z,63776.00
2022-09-05T09:41:06.775Z,129568.00
2022-09-05T09:42:06.767Z,108960.00
2022-09-05T09:43:07.331Z,101792.00
2022-09-05T09:44:06.796Z,144256.00
2022-09-05T09:45:27.459Z,86240.00
2022-09-05T09:46:07.768Z,48704.00
2022-09-05T09:47:06.722Z,61760.00
2022-09-05T09:48:06.714Z,92000.00
2022-09-05T09:49:22.778Z,52416.00
2022-09-05T09:50:07.675Z,54912.00
2022-09-05T09:51:06.696Z,50080.00
2022-09-05T09:52:06.750Z,102752.00
2022-09-05T09:53:07.693Z,54048.00
2022-09-05T09:54:06.631Z,50624.00
2022-09-05T09:55:06.717Z,59936.00
2022-09-05T09:56:06.870Z,65216.00
2022-09-05T09:57:06.601Z,65216.00
2022-09-05T09:58:06.606Z,63072.00
2022-09-05T09:59:06.579Z,155776.00
2022-09-05T10:00:06.564Z,58080.00
2022-09-05T10:01:35.513Z,77888.00
2022-09-05T10:03:42.332Z,65664.00
2022-09-05T10:04:31.170Z,66560.00
2022-09-05T10:10:37.914Z,93920.00
2022-09-05T10:10:39.008Z,158336.00
2022-09-05T10:10:45.885Z,72000.00
2022-09-05T10:10:46.167Z,69536.00
2022-09-05T10:10:52.399Z,58336.00
2022-09-05T10:10:58.713Z,77824.00
2022-09-05T10:11:09.182Z,58880.00
2022-09-05T10:11:42.687Z,104256.00
2022-09-05T10:12:08.006Z,53952.00
2022-09-05T10:13:08.939Z,128000.00
2022-09-05T10:14:06.529Z,136288.00
2022-09-05T10:15:31.129Z,78496.00
2022-09-05T10:16:07.636Z,147328.00
2022-09-05T10:17:06.378Z,97344.00
2022-09-05T10:18:06.801Z,46176.00
2022-09-05T10:19:06.355Z,106336.00
2022-09-05T10:20:08.967Z,57920.00
2022-09-05T10:21:16.649Z,56384.00
2022-09-05T10:23:07.370Z,44992.00
2022-09-05T10:24:06.304Z,47136.00
2022-09-05T10:25:16.445Z,58624.00
2022-09-05T10:26:07.297Z,68544.00
2022-09-05T10:27:06.268Z,91104.00
2022-09-05T10:28:06.328Z,97472.00
2022-09-05T10:29:11.755Z,63072.00
2022-09-05T10:30:07.285Z,97632.00
2022-09-05T10:34:32.760Z,58016.00
2022-09-05T10:35:10.553Z,154944.00
2022-09-05T10:35:11.472Z,119808.00
2022-09-05T10:35:14.104Z,157056.00
2022-09-05T10:35:20.888Z,119392.00
2022-09-05T10:36:07.224Z,67200.00
2022-09-05T10:37:06.166Z,96704.00
2022-09-05T10:38:10.524Z,81696.00
2022-09-05T10:39:06.298Z,94240.00
2022-09-05T10:40:06.212Z,69216.00
2022-09-05T10:41:21.409Z,66688.00
2022-09-05T10:42:07.111Z,56160.00
2022-09-05T10:43:06.157Z,129696.00
2022-09-05T10:44:06.091Z,57056.00
2022-09-05T10:45:06.092Z,116224.00
2022-09-05T10:46:06.129Z,129376.00
2022-09-05T10:47:06.243Z,120768.00
2022-09-05T10:48:12.945Z,135648.00
2022-09-05T10:49:07.036Z,133376.00
2022-09-05T10:50:06.028Z,131392.00
2022-09-05T10:51:06.033Z,132000.00
2022-09-05T10:52:18.873Z,135360.00
2022-09-05T10:53:07.022Z,58528.00
2022-09-05T10:54:06.017Z,37280.00
2022-09-05T10:55:14.665Z,77056.00
2022-09-05T10:56:06.977Z,58688.00
2022-09-05T10:57:05.986Z,62176.00
2022-09-05T10:58:05.942Z,47040.00
2022-09-05T11:02:16.616Z,38560.00
2022-09-05T11:02:20.025Z,44384.00
2022-09-05T11:02:24.379Z,64160.00
2022-09-05T11:02:27.008Z,39424.00
2022-09-05T11:03:22.498Z,84000.00
2022-09-05T11:04:07.019Z,54176.00
2022-09-05T11:05:05.917Z,54496.00
2022-09-05T11:06:09.484Z,92512.00
2022-09-05T11:07:05.875Z,51808.00
2022-09-05T11:08:05.831Z,92576.00
2022-09-05T11:09:05.834Z,59136.00
2022-09-05T11:10:05.875Z,140064.00
2022-09-05T11:11:05.808Z,87360.00
2022-09-05T11:12:05.861Z,72576.00
2022-09-05T11:13:05.852Z,74016.00
2022-09-05T11:14:05.818Z,112864.00
2022-09-05T11:15:05.754Z,104512.00
2022-09-05T11:16:08.306Z,102944.00
2022-09-05T11:17:05.751Z,103168.00
2022-09-05T11:18:06.122Z,103232.00
2022-09-05T11:19:05.762Z,115840.00
2022-09-05T11:20:05.700Z,112704.00
2022-09-05T11:21:06.762Z,112320.00
2022-09-05T11:22:22.805Z,109728.00
2022-09-05T11:23:06.809Z,104096.00
2022-09-05T11:24:05.689Z,106592.00
2022-09-05T11:25:05.650Z,110592.00
2022-09-05T11:26:05.638Z,106720.00
2022-09-05T11:27:23.389Z,109472.00
2022-09-05T11:28:06.628Z,113248.00
2022-09-05T11:29:05.624Z,115200.00
2022-09-05T11:30:05.595Z,119424.00
2022-09-05T11:31:05.636Z,120032.00
2022-09-05T11:34:18.199Z,125088.00
2022-09-05T11:39:46.309Z,52800.00
2022-09-05T11:39:46.390Z,90976.00
2022-09-05T11:39:47.316Z,48000.00
2022-09-05T11:39:58.407Z,79776.00
2022-09-05T11:39:59.340Z,119904.00
2022-09-05T11:40:08.558Z,95136.00
2022-09-05T11:40:09.883Z,118272.00
2022-09-05T11:40:29.297Z,94368.00
2022-09-05T11:41:12.360Z,54560.00
2022-09-05T11:42:06.531Z,66240.00
2022-09-05T11:43:05.542Z,86752.00
2022-09-05T11:44:13.610Z,119872.00
2022-09-05T11:45:06.489Z,71200.00
2022-09-05T11:46:05.486Z,134912.00
2022-09-05T11:47:27.989Z,50912.00
2022-09-05T11:48:06.403Z,99104.00
2022-09-05T11:49:05.400Z,139104.00
2022-09-05T11:50:09.207Z,126816.00
2022-09-05T11:51:05.366Z,126656.00
2022-09-05T11:52:05.414Z,123200.00
2022-09-05T11:53:05.342Z,119392.00
2022-09-05T11:54:05.344Z,126944.00
2022-09-05T11:55:05.370Z,34432.00
2022-09-05T11:56:05.309Z,125952.00
2022-09-05T11:57:32.708Z,119264.00
2022-09-05T11:58:43.930Z,121920.00
2022-09-05T11:59:06.543Z,119936.00
2022-09-05T12:00:31.848Z,113984.00
2022-09-05T12:01:42.666Z,117088.00
2022-09-05T12:02:10.981Z,118336.00
2022-09-05T12:03:06.230Z,118496.00
2022-09-05T12:04:09.965Z,112096.00
2022-09-05T12:05:50.306Z,90592.00
2022-09-05T12:06:06.306Z,56640.00
2022-09-05T12:07:27.059Z,113632.00
2022-09-05T12:08:06.173Z,109536.00
2022-09-05T12:09:06.212Z,111136.00
2022-09-05T12:10:05.213Z,107424.00
2022-09-05T12:11:05.140Z,109664.00
2022-09-05T12:12:05.148Z,109376.00
2022-09-05T12:13:07.063Z,112800.00
2022-09-05T12:14:13.812Z,105696.00
2022-09-05T12:15:07.379Z,106016.00
2022-09-05T12:16:08.212Z,111488.00
2022-09-05T12:17:10.158Z,113184.00
2022-09-05T12:18:18.981Z,109408.00